createdAt,value
2024-02-12T00:00:02.766Z,99.99
2024-02-12T00:01:02.857Z,99.99
2024-02-12T00:02:02.873Z,99.99
2024-02-12T00:03:02.774Z,99.99
2024-02-12T00:04:02.734Z,99.99
2024-02-12T00:05:02.918Z,99.99
2024-02-12T00:06:02.798Z,99.99
2024-02-12T00:07:02.663Z,99.99
2024-02-12T00:08:02.855Z,99.99
2024-02-12T00:09:02.710Z,99.99
2024-02-12T00:10:02.651Z,99.99
2024-02-12T00:11:02.688Z,99.99
2024-02-12T00:12:02.604Z,99.99
2024-02-12T00:13:02.623Z,99.99
2024-02-12T00:14:02.619Z,99.99
2024-02-12T00:15:02.578Z,99.99
2024-02-12T00:16:02.548Z,99.99
2024-02-12T00:17:02.645Z,99.99
2024-02-12T00:18:02.741Z,99.99
2024-02-12T00:19:02.595Z,99.99
2024-02-12T00:20:02.630Z,99.99
2024-02-12T00:21:02.568Z,99.99
2024-02-12T00:22:02.485Z,99.99
2024-02-12T00:23:04.628Z,99.99
2024-02-12T00:24:02.476Z,99.99
2024-02-12T00:25:02.468Z,99.99
2024-02-12T00:26:02.604Z,99.99
2024-02-12T00:27:02.425Z,99.99
2024-02-12T00:28:02.473Z,99.99
2024-02-12T00:29:02.548Z,99.99
2024-02-12T00:30:02.441Z,99.99
2024-02-12T00:31:02.435Z,99.99
2024-02-12T00:32:02.468Z,99.99
2024-02-12T00:33:02.433Z,99.99
2024-02-12T00:34:02.608Z,99.99
2024-02-12T00:35:02.478Z,99.99
2024-02-12T00:36:02.373Z,99.99
2024-02-12T00:37:02.339Z,99.99
2024-02-12T00:38:02.471Z,99.99
2024-02-12T00:39:02.301Z,99.99
2024-02-12T00:40:02.315Z,99.99
2024-02-12T00:41:02.292Z,99.99
2024-02-12T00:42:02.312Z,99.99
2024-02-12T00:43:02.242Z,99.99
2024-02-12T00:44:02.276Z,99.99
2024-02-12T00:45:02.294Z,99.99
2024-02-12T00:46:02.238Z,99.99
2024-02-12T00:47:02.260Z,99.99
2024-02-12T00:48:02.349Z,99.99
2024-02-12T00:49:02.304Z,99.99
2024-02-12T00:50:02.301Z,99.99
2024-02-12T00:51:11.530Z,99.99
2024-02-12T00:52:02.168Z,99.99
2024-02-12T00:53:02.123Z,99.99
2024-02-12T00:54:02.233Z,99.99
2024-02-12T00:55:02.138Z,99.99
2024-02-12T00:56:02.113Z,99.99
2024-02-12T00:57:02.089Z,99.82
2024-02-12T00:58:02.196Z,99.51
2024-02-12T00:59:02.121Z,99.61
2024-02-12T01:00:02.068Z,99.55
2024-02-12T01:01:02.083Z,99.40
2024-02-12T01:02:02.110Z,99.99
2024-02-12T01:03:02.032Z,99.55
2024-02-12T01:04:02.061Z,99.61
2024-02-12T01:05:02.179Z,99.44
2024-02-12T01:06:02.042Z,99.51
2024-02-12T01:07:01.964Z,99.30
2024-02-12T01:08:02.018Z,99.40
2024-02-12T01:09:01.997Z,99.40
2024-02-12T01:10:01.989Z,99.76
2024-02-12T01:11:01.967Z,99.40
2024-02-12T01:12:01.924Z,99.40
2024-02-12T01:13:01.944Z,99.51
2024-02-12T01:14:01.930Z,99.61
2024-02-12T01:15:01.942Z,99.86
2024-02-12T01:16:01.886Z,99.82
2024-02-12T01:17:01.927Z,99.44
2024-02-12T01:18:09.920Z,99.76
2024-02-12T01:19:02.895Z,99.71
2024-02-12T01:20:01.864Z,99.92
2024-02-12T01:21:01.800Z,99.61
2024-02-12T01:22:01.848Z,99.61
2024-02-12T01:23:01.844Z,99.40
2024-02-12T01:24:01.771Z,99.99
2024-02-12T01:25:01.788Z,99.30
2024-02-12T01:26:01.854Z,99.61
2024-02-12T01:27:01.794Z,99.65
2024-02-12T01:28:01.820Z,99.82
2024-02-12T01:29:01.751Z,99.61
2024-02-12T01:30:01.775Z,99.71
2024-02-12T01:31:01.725Z,99.65
2024-02-12T01:32:01.783Z,99.86
2024-02-12T01:33:01.815Z,99.55
2024-02-12T01:34:01.822Z,99.86
2024-02-12T01:35:01.675Z,99.65
2024-02-12T01:36:01.679Z,99.71
2024-02-12T01:37:01.650Z,99.86
2024-02-12T01:38:01.640Z,99.96
2024-02-12T01:39:01.608Z,99.71
2024-02-12T01:40:01.606Z,99.71
2024-02-12T01:41:01.701Z,99.82
2024-02-12T01:42:01.569Z,99.82
2024-02-12T01:43:01.545Z,99.86
2024-02-12T01:44:01.591Z,99.96
2024-02-12T01:45:01.600Z,99.71
2024-02-12T01:46:01.578Z,99.82
2024-02-12T01:47:05.803Z,99.92
2024-02-12T01:48:02.707Z,99.61
2024-02-12T01:49:01.553Z,99.14
2024-02-12T01:50:01.531Z,99.34
2024-02-12T01:51:01.488Z,98.88
2024-02-12T01:52:01.560Z,99.30
2024-02-12T01:53:01.483Z,99.09
2024-02-12T01:54:01.447Z,98.93
2024-02-12T01:55:01.446Z,99.34
2024-02-12T01:56:01.475Z,98.88
2024-02-12T01:57:01.426Z,98.99
2024-02-12T01:58:01.388Z,98.88
2024-02-12T01:59:01.553Z,99.30
2024-02-12T02:00:01.369Z,99.30
2024-02-12T02:01:01.440Z,99.19
2024-02-12T02:02:01.425Z,99.19
2024-02-12T02:03:01.324Z,98.88
2024-02-12T02:04:01.352Z,99.04
2024-02-12T02:05:01.376Z,98.99
2024-02-12T02:06:01.418Z,99.30
2024-02-12T02:07:01.334Z,99.09
2024-02-12T02:08:01.333Z,98.68
2024-02-12T02:09:01.248Z,99.51
2024-02-12T02:10:01.257Z,99.24
2024-02-12T02:11:01.274Z,99.34
2024-02-12T02:12:01.256Z,99.19
2024-02-12T02:13:01.413Z,99.19
2024-02-12T02:14:01.232Z,99.34
2024-02-12T02:15:01.198Z,99.19
2024-02-12T02:16:01.177Z,99.44
2024-02-12T02:17:01.200Z,99.55
2024-02-12T02:18:01.219Z,99.55
2024-02-12T02:19:01.300Z,99.09
2024-02-12T02:20:01.261Z,99.24
2024-02-12T02:21:01.133Z,99.24
2024-02-12T02:22:01.128Z,99.65
2024-02-12T02:23:03.108Z,99.44
2024-02-12T02:24:01.080Z,99.19
2024-02-12T02:25:01.187Z,99.40
2024-02-12T02:26:01.128Z,99.44
2024-02-12T02:27:01.054Z,99.65
2024-02-12T02:28:01.064Z,99.86
2024-02-12T02:29:01.186Z,99.96
2024-02-12T02:30:01.023Z,99.86
2024-02-12T02:31:01.002Z,99.86
2024-02-12T02:32:01.027Z,99.86
2024-02-12T02:33:01.184Z,99.86
2024-02-12T02:34:01.104Z,99.76
2024-02-12T02:35:00.972Z,99.86
2024-02-12T02:36:00.943Z,99.96
2024-02-12T02:37:00.943Z,99.65
2024-02-12T02:38:00.946Z,99.86
2024-02-12T02:39:01.033Z,99.65
2024-02-12T02:40:00.899Z,99.86
2024-02-12T02:41:01.067Z,99.44
2024-02-12T02:42:00.882Z,99.34
2024-02-12T02:43:00.894Z,99.44
2024-02-12T02:44:00.876Z,99.44
2024-02-12T02:45:00.906Z,99.44
2024-02-12T02:46:00.901Z,99.55
2024-02-12T02:47:00.839Z,99.44
2024-02-12T02:48:00.874Z,99.65
2024-02-12T02:49:00.898Z,99.86
2024-02-12T02:50:00.854Z,99.65
2024-02-12T02:51:00.778Z,99.65
2024-02-12T02:52:00.779Z,99.55
2024-02-12T02:53:00.789Z,99.76
2024-02-12T02:54:00.740Z,99.55
2024-02-12T02:55:00.739Z,99.65
2024-02-12T02:56:00.783Z,99.55
2024-02-12T02:57:00.708Z,99.44
2024-02-12T02:58:00.705Z,99.65
2024-02-12T02:59:00.763Z,99.96
2024-02-12T03:00:00.705Z,99.86
2024-02-12T03:01:00.693Z,99.65
2024-02-12T03:02:00.688Z,99.96
2024-02-12T03:03:00.682Z,99.65
2024-02-12T03:04:00.756Z,99.65
2024-02-12T03:05:00.676Z,99.65
2024-02-12T03:06:00.779Z,99.96
2024-02-12T03:07:00.581Z,99.76
2024-02-12T03:08:00.647Z,99.86
2024-02-12T03:09:00.566Z,99.99
2024-02-12T03:10:00.594Z,99.99
2024-02-12T03:11:00.615Z,99.65
2024-02-12T03:12:00.556Z,99.76
2024-02-12T03:13:00.662Z,99.86
2024-02-12T03:14:00.559Z,99.76
2024-02-12T03:15:00.499Z,99.99
2024-02-12T03:16:00.499Z,99.65
2024-02-12T03:17:00.548Z,99.96
2024-02-12T03:18:00.600Z,99.99
2024-02-12T03:19:00.585Z,99.96
2024-02-12T03:20:00.598Z,99.96
2024-02-12T03:21:00.506Z,99.86
2024-02-12T03:22:00.534Z,99.65
2024-02-12T03:23:00.457Z,99.86
2024-02-12T03:24:00.414Z,99.76
2024-02-12T03:25:00.404Z,99.76
2024-02-12T03:26:00.468Z,99.65
2024-02-12T03:27:00.388Z,99.86
2024-02-12T03:28:00.378Z,99.76
2024-02-12T03:29:00.391Z,99.76
2024-02-12T03:30:00.355Z,99.65
2024-02-12T03:31:00.439Z,99.76
2024-02-12T03:32:00.342Z,99.65
2024-02-12T03:33:00.363Z,99.65
2024-02-12T03:34:00.308Z,99.65
2024-02-12T03:35:00.293Z,99.86
2024-02-12T03:36:00.427Z,99.65
2024-02-12T03:37:00.251Z,99.76
2024-02-12T03:38:00.320Z,99.76
2024-02-12T03:39:00.237Z,99.96
2024-02-12T03:40:00.244Z,99.65
2024-02-12T03:41:00.249Z,99.65
2024-02-12T03:42:00.283Z,99.44
2024-02-12T03:43:00.180Z,99.34
2024-02-12T03:44:00.222Z,99.34
2024-02-12T03:45:00.180Z,99.34
2024-02-12T03:46:00.153Z,99.34
2024-02-12T03:47:00.166Z,99.04
2024-02-12T03:48:00.238Z,99.34
2024-02-12T03:49:00.239Z,98.93
2024-02-12T03:50:00.187Z,99.24
2024-02-12T03:51:00.111Z,99.44
2024-02-12T03:52:00.112Z,99.44
2024-02-12T03:53:00.103Z,99.86
2024-02-12T03:54:00.072Z,99.65
2024-02-12T03:55:02.246Z,99.76
2024-02-12T03:56:00.068Z,99.96
2024-02-12T03:57:00.064Z,99.65
2024-02-12T03:58:00.098Z,99.99
2024-02-12T03:59:00.144Z,99.44
2024-02-12T03:59:59.983Z,99.55
2024-02-12T04:01:00.005Z,99.65
2024-02-12T04:02:00.009Z,99.76
2024-02-12T04:03:00.023Z,99.65
2024-02-12T04:03:59.963Z,99.76
2024-02-12T04:04:59.945Z,99.65
2024-02-12T04:05:59.996Z,99.65
2024-02-12T04:06:59.901Z,99.76
2024-02-12T04:07:59.959Z,99.76
2024-02-12T04:08:59.902Z,99.76
2024-02-12T04:09:59.895Z,99.96
2024-02-12T04:10:59.897Z,99.76
2024-02-12T04:11:59.876Z,99.44
2024-02-12T04:12:59.970Z,99.65
2024-02-12T04:13:59.870Z,99.14
2024-02-12T04:14:59.803Z,99.34
2024-02-12T04:15:59.812Z,99.44
2024-02-12T04:16:59.818Z,99.44
2024-02-12T04:17:59.828Z,99.44
2024-02-12T04:18:59.867Z,99.65
2024-02-12T04:19:59.761Z,99.44
2024-02-12T04:20:59.785Z,99.44
2024-02-12T04:21:59.772Z,99.44
2024-02-12T04:22:59.774Z,99.44
2024-02-12T04:23:59.713Z,99.55
2024-02-12T04:24:59.692Z,99.76
2024-02-12T04:25:59.715Z,99.76
2024-02-12T04:26:59.686Z,99.55
2024-02-12T04:27:59.687Z,99.76
2024-02-12T04:28:59.677Z,99.99
2024-02-12T04:29:59.679Z,99.65
2024-02-12T04:30:59.640Z,99.44
2024-02-12T04:31:59.654Z,99.60
2024-02-12T04:32:59.758Z,99.18
2024-02-12T04:33:59.733Z,99.39
2024-02-12T04:34:59.621Z,99.70
2024-02-12T04:35:59.573Z,99.34
2024-02-12T04:36:59.565Z,99.39
2024-02-12T04:37:59.654Z,99.70
2024-02-12T04:38:59.561Z,99.70
2024-02-12T04:39:59.525Z,99.49
2024-02-12T04:40:59.545Z,99.91
2024-02-12T04:41:59.511Z,99.49
2024-02-12T04:42:59.498Z,99.70
2024-02-12T04:43:59.524Z,99.80
2024-02-12T04:44:59.476Z,99.39
2024-02-12T04:45:59.471Z,99.80
2024-02-12T04:46:59.471Z,99.91
2024-02-12T04:47:59.637Z,99.60
2024-02-12T04:48:59.525Z,99.91
2024-02-12T04:49:59.454Z,99.99
2024-02-12T04:50:59.408Z,99.60
2024-02-12T04:51:59.391Z,99.60
2024-02-12T04:52:59.391Z,99.96
2024-02-12T04:53:59.396Z,99.49
2024-02-12T04:54:59.357Z,99.60
2024-02-12T04:55:59.486Z,99.76
2024-02-12T04:56:59.325Z,99.80
2024-02-12T04:57:59.423Z,99.86
2024-02-12T04:58:59.415Z,99.76
2024-02-12T04:59:59.332Z,99.86
2024-02-12T05:00:59.312Z,99.65
2024-02-12T05:01:59.310Z,99.70
2024-02-12T05:02:59.257Z,99.44
2024-02-12T05:03:59.340Z,99.44
2024-02-12T05:04:59.285Z,99.65
2024-02-12T05:05:59.237Z,99.65
2024-02-12T05:06:59.265Z,99.49
2024-02-12T05:07:59.281Z,99.65
2024-02-12T05:09:02.032Z,99.91
2024-02-12T05:09:59.214Z,99.70
2024-02-12T05:10:59.235Z,99.86
2024-02-12T05:11:59.169Z,99.65
2024-02-12T05:12:59.229Z,99.65
2024-02-12T05:13:59.237Z,99.65
2024-02-12T05:14:59.159Z,99.65
2024-02-12T05:15:59.137Z,99.55
2024-02-12T05:16:59.133Z,99.49
2024-02-12T05:17:59.126Z,99.49
2024-02-12T05:18:59.120Z,99.76
2024-02-12T05:19:59.127Z,99.18
2024-02-12T05:20:59.059Z,99.70
2024-02-12T05:21:59.075Z,99.39
2024-02-12T05:22:59.092Z,99.39
2024-02-12T05:23:59.026Z,99.55
2024-02-12T05:24:59.037Z,99.70
2024-02-12T05:25:59.094Z,99.65
2024-02-12T05:26:59.052Z,99.76
2024-02-12T05:27:59.006Z,99.44
2024-02-12T05:28:58.977Z,99.44
2024-02-12T05:29:58.986Z,99.70
2024-02-12T05:30:58.964Z,99.55
2024-02-12T05:31:58.998Z,99.86
2024-02-12T05:32:59.027Z,99.60
2024-02-12T05:33:59.168Z,99.80
2024-02-12T05:34:59.059Z,99.99
2024-02-12T05:35:58.915Z,99.76
2024-02-12T05:36:58.879Z,99.65
2024-02-12T05:37:58.879Z,99.99
2024-02-12T05:38:58.848Z,99.80
2024-02-12T05:39:58.861Z,99.91
2024-02-12T05:40:58.892Z,99.44
2024-02-12T05:41:58.827Z,99.44
2024-02-12T05:42:58.844Z,99.99
2024-02-12T05:43:58.835Z,99.80
2024-02-12T05:44:58.792Z,99.99
2024-02-12T05:45:58.801Z,99.80
2024-02-12T05:46:58.852Z,99.49
2024-02-12T05:47:58.851Z,99.99
2024-02-12T05:48:58.774Z,99.91
2024-02-12T05:49:58.830Z,99.99
2024-02-12T05:50:58.860Z,99.96
2024-02-12T05:51:58.711Z,99.91
2024-02-12T05:52:58.749Z,99.99
2024-02-12T05:53:58.677Z,99.99
2024-02-12T05:54:58.673Z,99.91
2024-02-12T05:55:58.895Z,99.80
2024-02-12T05:56:58.681Z,99.76
2024-02-12T05:57:58.680Z,99.55
2024-02-12T05:58:58.664Z,99.99
2024-02-12T05:59:58.651Z,99.80
2024-02-12T06:00:58.742Z,99.86
2024-02-12T06:01:58.684Z,99.80
2024-02-12T06:02:58.653Z,99.91
2024-02-12T06:03:58.681Z,99.86
2024-02-12T06:04:58.750Z,99.96
2024-02-12T06:05:58.724Z,99.65
2024-02-12T06:06:58.669Z,99.91
2024-02-12T06:07:58.709Z,99.91
2024-02-12T06:08:58.628Z,99.91
2024-02-12T06:09:58.508Z,99.91
2024-02-12T06:10:58.561Z,99.91
2024-02-12T06:11:58.493Z,99.91
2024-02-12T06:12:58.512Z,99.18
2024-02-12T06:13:58.528Z,99.65
2024-02-12T06:14:58.437Z,99.91
2024-02-12T06:15:58.449Z,99.80
2024-02-12T06:16:58.634Z,99.80
2024-02-12T06:17:58.519Z,99.80
2024-02-12T06:18:58.454Z,99.91
2024-02-12T06:19:58.410Z,99.49
2024-02-12T06:20:58.438Z,99.91
2024-02-12T06:21:58.380Z,99.99
2024-02-12T06:22:58.490Z,99.91
2024-02-12T06:23:58.458Z,99.49
2024-02-12T06:24:58.373Z,99.99
2024-02-12T06:25:58.426Z,99.99
2024-02-12T06:26:58.306Z,99.99
2024-02-12T06:27:58.327Z,99.60
2024-02-12T06:28:58.377Z,99.18
2024-02-12T06:29:58.319Z,99.80
2024-02-12T06:30:58.277Z,99.80
2024-02-12T06:31:58.261Z,99.99
2024-02-12T06:32:58.391Z,99.49
2024-02-12T06:33:58.383Z,99.65
2024-02-12T06:34:58.294Z,99.70
2024-02-12T06:35:58.227Z,99.80
2024-02-12T06:36:58.284Z,99.96
2024-02-12T06:37:58.207Z,99.91
2024-02-12T06:38:58.183Z,99.80
2024-02-12T06:39:58.158Z,99.70
2024-02-12T06:40:58.182Z,99.70
2024-02-12T06:41:58.152Z,99.99
2024-02-12T06:42:58.165Z,99.99
2024-02-12T06:43:58.124Z,99.99
2024-02-12T06:44:58.128Z,99.99
2024-02-12T06:45:58.167Z,99.99
2024-02-12T06:46:58.078Z,99.99
2024-02-12T06:47:58.087Z,99.99
2024-02-12T06:48:58.171Z,99.99
2024-02-12T06:49:58.112Z,99.99
2024-02-12T06:50:58.425Z,99.99
2024-02-12T06:51:58.024Z,99.99
2024-02-12T06:52:58.014Z,99.99
2024-02-12T06:53:58.008Z,99.99
2024-02-12T06:54:58.116Z,99.99
2024-02-12T06:55:58.088Z,99.99
2024-02-12T06:56:57.955Z,99.99
2024-02-12T06:57:57.939Z,99.99
2024-02-12T06:58:57.986Z,99.99
2024-02-12T06:59:58.049Z,99.99
2024-02-12T07:00:58.025Z,99.99
2024-02-12T07:01:57.945Z,99.99
2024-02-12T07:02:57.916Z,99.99
2024-02-12T07:03:57.955Z,99.99
2024-02-12T07:04:57.903Z,99.99
2024-02-12T07:05:58.066Z,99.99
2024-02-12T07:06:57.904Z,99.99
2024-02-12T07:07:57.856Z,99.99
2024-02-12T07:08:57.811Z,99.99
2024-02-12T07:09:57.806Z,99.99
2024-02-12T07:10:57.867Z,99.99
2024-02-12T07:11:57.813Z,99.99
2024-02-12T07:12:57.834Z,99.99
2024-02-12T07:13:57.876Z,99.99
2024-02-12T07:14:57.762Z,99.99
2024-02-12T07:15:57.779Z,99.99
2024-02-12T07:16:57.770Z,99.99
2024-02-12T07:17:57.791Z,99.99
2024-02-12T07:18:57.775Z,99.99
2024-02-12T07:19:57.749Z,99.99
2024-02-12T07:20:57.733Z,99.99
2024-02-12T07:21:57.698Z,99.99
2024-02-12T07:22:57.696Z,99.99
2024-02-12T07:23:57.664Z,99.99
2024-02-12T07:24:57.645Z,99.99
2024-02-12T07:25:57.650Z,99.99
2024-02-12T07:26:57.677Z,99.99
2024-02-12T07:27:57.607Z,99.99
2024-02-12T07:28:57.619Z,99.99
2024-02-12T07:29:57.576Z,99.99
2024-02-12T07:30:57.616Z,99.99
2024-02-12T07:31:57.623Z,99.99
2024-02-12T07:32:57.659Z,99.96
2024-02-12T07:33:57.629Z,99.76
2024-02-12T07:34:57.573Z,99.86
2024-02-12T07:35:57.516Z,99.34
2024-02-12T07:36:57.556Z,99.34
2024-02-12T07:37:57.699Z,99.65
2024-02-12T07:38:57.611Z,99.65
2024-02-12T07:39:57.465Z,99.44
2024-02-12T07:40:57.498Z,99.76
2024-02-12T07:41:57.503Z,99.96
2024-02-12T07:42:57.459Z,99.86
2024-02-12T07:43:57.451Z,99.40
2024-02-12T07:44:57.423Z,99.61
2024-02-12T07:45:57.439Z,99.14
2024-02-12T07:46:57.487Z,99.71
2024-02-12T07:47:57.746Z,99.82
2024-02-12T07:48:57.475Z,99.82
2024-02-12T07:49:57.617Z,99.65
2024-02-12T07:50:57.355Z,99.82
2024-02-12T07:51:57.343Z,99.51
2024-02-12T07:52:57.384Z,99.82
2024-02-12T07:53:57.439Z,99.61
2024-02-12T07:54:57.299Z,99.30
2024-02-12T07:55:57.422Z,99.40
2024-02-12T07:56:57.274Z,99.92
2024-02-12T07:57:57.297Z,99.82
2024-02-12T07:58:57.418Z,99.82
2024-02-12T07:59:57.338Z,99.92
2024-02-12T08:00:57.340Z,99.71
2024-02-12T08:01:57.310Z,99.99
2024-02-12T08:02:57.322Z,99.61
2024-02-12T08:03:57.311Z,99.82
2024-02-12T08:04:57.260Z,99.82
2024-02-12T08:05:57.163Z,99.99
2024-02-12T08:06:57.280Z,99.77
2024-02-12T08:08:03.166Z,99.66
2024-02-12T08:08:58.175Z,99.87
2024-02-12T08:09:57.187Z,99.87
2024-02-12T08:10:57.270Z,99.77
2024-02-12T08:11:57.200Z,99.46
2024-02-12T08:12:57.123Z,99.46
2024-02-12T08:13:57.154Z,99.87
2024-02-12T08:14:57.085Z,99.77
2024-02-12T08:15:57.064Z,99.77
2024-02-12T08:16:57.113Z,99.35
2024-02-12T08:17:57.125Z,99.77
2024-02-12T08:18:57.051Z,99.98
2024-02-12T08:19:57.192Z,99.66
2024-02-12T08:20:57.059Z,99.66
2024-02-12T08:21:56.996Z,99.66
2024-02-12T08:22:57.271Z,99.66
2024-02-12T08:23:57.006Z,99.56
2024-02-12T08:24:57.046Z,99.66
2024-02-12T08:25:57.049Z,99.66
2024-02-12T08:26:56.949Z,99.66
2024-02-12T08:27:56.938Z,99.66
2024-02-12T08:28:56.994Z,99.77
2024-02-12T08:29:56.986Z,99.87
2024-02-12T08:30:59.710Z,99.66
2024-02-12T08:31:57.914Z,99.35
2024-02-12T08:32:56.976Z,99.66
2024-02-12T08:33:56.912Z,99.35
2024-02-12T08:34:56.950Z,99.82
2024-02-12T08:35:56.900Z,99.40
2024-02-12T08:36:56.817Z,99.56
2024-02-12T08:37:56.942Z,99.61
2024-02-12T08:38:56.821Z,99.46
2024-02-12T08:39:56.823Z,99.77
2024-02-12T08:40:56.842Z,99.77
2024-02-12T08:41:56.780Z,99.87
2024-02-12T08:42:56.766Z,99.82
2024-02-12T08:43:56.810Z,99.31
2024-02-12T08:44:59.933Z,99.21
2024-02-12T08:45:56.729Z,99.62
2024-02-12T08:46:56.792Z,99.72
2024-02-12T08:47:56.785Z,99.57
2024-02-12T08:48:56.697Z,99.68
2024-02-12T08:49:56.788Z,99.47
2024-02-12T08:50:56.808Z,99.06
2024-02-12T08:51:56.622Z,98.96
2024-02-12T08:52:56.660Z,99.16
2024-02-12T08:54:00.036Z,99.06
2024-02-12T08:54:56.650Z,99.16
2024-02-12T08:55:56.652Z,98.75
2024-02-12T08:56:56.634Z,98.60
2024-02-12T08:57:56.604Z,98.60
2024-02-12T08:58:56.698Z,98.96
2024-02-12T08:59:56.591Z,98.39
2024-02-12T09:00:56.627Z,98.13
2024-02-12T09:01:56.553Z,98.08
2024-02-12T09:02:56.642Z,98.08
2024-02-12T09:03:56.668Z,98.08
2024-02-12T09:04:56.547Z,97.77
2024-02-12T09:05:56.590Z,97.98
2024-02-12T09:06:56.496Z,97.67
2024-02-12T09:07:56.492Z,98.08
2024-02-12T09:08:56.494Z,98.03
2024-02-12T09:09:56.422Z,98.19
2024-02-12T09:10:56.427Z,97.98
2024-02-12T09:11:56.619Z,97.16
2024-02-12T09:12:56.424Z,97.36
2024-02-12T09:13:56.622Z,97.16
2024-02-12T09:14:56.391Z,97.88
2024-02-12T09:15:56.395Z,97.88
2024-02-12T09:16:56.448Z,97.26
2024-02-12T09:17:56.591Z,96.95
2024-02-12T09:18:56.383Z,97.47
2024-02-12T09:19:56.369Z,97.05
2024-02-12T09:20:56.318Z,97.98
2024-02-12T09:21:56.336Z,97.73
2024-02-12T09:22:56.534Z,97.67
2024-02-12T09:23:56.321Z,97.73
2024-02-12T09:27:06.874Z,96.91
2024-02-12T09:29:25.386Z,97.11
2024-02-12T09:30:24.960Z,96.49
2024-02-12T09:31:25.040Z,96.59
2024-02-12T09:32:25.048Z,97.11
2024-02-12T09:33:25.023Z,96.39
2024-02-12T09:34:34.562Z,96.86
2024-02-12T09:35:25.169Z,96.86
2024-02-12T09:36:32.578Z,96.96
2024-02-12T09:37:24.940Z,96.14
2024-02-12T09:38:25.039Z,96.45
2024-02-12T09:39:25.058Z,95.78
2024-02-12T09:40:24.956Z,95.68
2024-02-12T09:41:24.855Z,96.34
2024-02-12T09:42:24.735Z,96.34
2024-02-12T09:43:24.824Z,95.31
2024-02-12T09:44:24.819Z,94.70
2024-02-12T09:45:24.801Z,95.10
2024-02-12T09:46:24.710Z,94.90
2024-02-12T09:47:24.783Z,94.80
2024-02-12T09:48:24.740Z,95.21
2024-02-12T09:49:24.773Z,94.59
2024-02-12T09:50:24.774Z,94.90
2024-02-12T09:51:24.678Z,94.59
2024-02-12T09:52:24.662Z,94.90
2024-02-12T09:53:24.808Z,95.00
2024-02-12T09:54:24.616Z,94.70
2024-02-12T09:55:24.653Z,94.59
2024-02-12T09:56:24.656Z,94.49
2024-02-12T09:57:24.585Z,94.70
2024-02-12T09:58:24.550Z,94.90
2024-02-12T09:59:24.672Z,95.10
2024-02-12T10:00:24.557Z,95.10
2024-02-12T10:01:24.704Z,95.00
2024-02-12T10:02:24.682Z,94.90
2024-02-12T10:03:24.508Z,94.90
2024-02-12T10:04:24.499Z,95.31
2024-02-12T10:05:24.894Z,94.49
2024-02-12T10:06:24.573Z,95.00
2024-02-12T10:07:24.495Z,94.18
2024-02-12T10:08:24.458Z,93.98
2024-02-12T10:09:24.482Z,94.23
2024-02-12T10:10:24.428Z,94.12
2024-02-12T10:11:24.453Z,94.43
2024-02-12T10:12:24.492Z,94.32
2024-02-12T10:13:24.402Z,94.43
2024-02-12T10:14:24.496Z,94.23
2024-02-12T10:15:24.413Z,94.28
2024-02-12T10:16:24.369Z,94.32
2024-02-12T10:17:24.479Z,94.23
2024-02-12T10:18:24.476Z,94.32
2024-02-12T10:19:24.358Z,94.53
2024-02-12T10:20:24.326Z,94.74
2024-02-12T10:21:24.370Z,94.64
2024-02-12T10:22:24.281Z,94.32
2024-02-12T10:23:24.338Z,94.53
2024-02-12T10:24:24.297Z,94.90
2024-02-12T10:25:24.257Z,94.53
2024-02-12T10:26:24.315Z,94.32
2024-02-12T10:27:24.242Z,94.12
2024-02-12T10:28:24.272Z,94.43
2024-02-12T10:29:24.235Z,94.08
2024-02-12T10:30:24.190Z,94.18
2024-02-12T10:31:24.182Z,94.23
2024-02-12T10:32:24.245Z,93.87
2024-02-12T10:33:24.341Z,94.18
2024-02-12T10:34:24.289Z,94.08
2024-02-12T10:35:24.530Z,94.18
2024-02-12T10:36:24.150Z,94.18
2024-02-12T10:37:24.113Z,94.18
2024-02-12T10:38:24.121Z,94.34
2024-02-12T10:39:24.165Z,94.24
2024-02-12T10:40:24.086Z,94.13
2024-02-12T10:41:24.174Z,94.65
2024-02-12T10:42:24.244Z,94.20
2024-02-12T10:43:24.062Z,94.20
2024-02-12T10:44:24.073Z,93.79
2024-02-12T10:45:24.023Z,93.48
2024-02-12T10:46:24.014Z,93.84
2024-02-12T10:47:24.076Z,93.84
2024-02-12T10:48:24.074Z,93.16
2024-02-12T10:49:24.145Z,92.82
2024-02-12T10:50:23.975Z,91.62
2024-02-12T10:51:23.972Z,92.44
2024-02-12T10:52:23.950Z,91.72
2024-02-12T10:53:23.950Z,91.42
2024-02-12T10:54:23.993Z,91.93
2024-02-12T10:55:23.921Z,92.34
2024-02-12T10:56:24.036Z,91.52
2024-02-12T10:57:23.923Z,91.93
2024-02-12T10:58:23.873Z,91.97
2024-02-12T10:59:23.868Z,92.03
2024-02-12T11:00:23.889Z,91.97
2024-02-12T11:01:23.909Z,91.72
2024-02-12T11:02:23.845Z,91.72
2024-02-12T11:03:23.825Z,91.77
2024-02-12T11:04:23.863Z,91.31
2024-02-12T11:05:23.856Z,91.56
2024-02-12T11:06:23.844Z,92.08
2024-02-12T11:07:23.773Z,92.24
2024-02-12T11:08:23.946Z,92.65
2024-02-12T11:09:23.946Z,92.44
2024-02-12T11:10:23.791Z,92.34
2024-02-12T11:11:23.884Z,92.24
2024-02-12T11:12:23.758Z,92.34
2024-02-12T11:13:23.714Z,92.24
2024-02-12T11:14:23.710Z,92.24
2024-02-12T11:15:23.708Z,92.34
2024-02-12T11:16:23.723Z,91.93
2024-02-12T11:17:23.775Z,92.34
2024-02-12T11:18:23.844Z,91.62
2024-02-12T11:19:25.060Z,91.00
2024-02-12T11:20:23.662Z,91.42
2024-02-12T11:21:24.079Z,91.52
2024-02-12T11:22:23.715Z,91.83
2024-02-12T11:23:23.816Z,90.49
2024-02-12T11:24:23.645Z,91.42
2024-02-12T11:25:24.071Z,91.62
2024-02-12T11:26:23.631Z,92.24
2024-02-12T11:27:23.572Z,91.62
2024-02-12T11:28:23.551Z,90.80
2024-02-12T11:29:23.576Z,91.21
2024-02-12T11:30:23.582Z,90.80
2024-02-12T11:31:23.522Z,90.90
2024-02-12T11:32:23.832Z,90.90
2024-02-12T11:33:23.601Z,91.31
2024-02-12T11:34:23.558Z,91.00
2024-02-12T11:35:23.668Z,90.39
2024-02-12T11:36:23.579Z,89.87
2024-02-12T11:37:23.460Z,90.59
2024-02-12T11:38:23.491Z,90.39
2024-02-12T11:39:23.466Z,90.49
2024-02-12T11:40:23.463Z,90.39
2024-02-12T11:41:23.419Z,90.28
2024-02-12T11:42:23.386Z,90.43
2024-02-12T11:43:23.392Z,90.64
2024-02-12T11:44:23.397Z,91.00
2024-02-12T11:45:23.508Z,91.05
2024-02-12T11:46:23.382Z,90.84
2024-02-12T11:47:23.392Z,91.46
2024-02-12T11:48:23.375Z,91.56
2024-02-12T11:49:23.441Z,91.97
2024-02-12T11:50:23.350Z,91.42
2024-02-12T11:51:23.317Z,91.46
2024-02-12T11:52:23.295Z,90.84
2024-02-12T11:53:23.370Z,91.25
2024-02-12T11:54:23.357Z,91.05
2024-02-12T11:55:23.437Z,91.36
2024-02-12T11:56:23.559Z,91.77
2024-02-12T11:57:23.303Z,92.29
2024-02-12T11:58:23.207Z,92.24
2024-02-12T11:59:23.847Z,92.38
2024-02-12T12:00:23.258Z,92.29
2024-02-12T12:01:23.267Z,92.18
2024-02-12T12:02:23.177Z,92.90
2024-02-12T12:03:23.196Z,93.41
2024-02-12T12:04:23.238Z,92.90
2024-02-12T12:05:23.301Z,92.90
2024-02-12T12:06:23.357Z,92.96
2024-02-12T12:07:23.147Z,92.96
2024-02-12T12:08:23.164Z,92.86
2024-02-12T12:09:23.206Z,93.06
2024-02-12T12:10:23.090Z,92.86
2024-02-12T12:11:23.141Z,93.01
2024-02-12T12:12:23.048Z,92.84
2024-02-12T12:13:23.068Z,91.91
2024-02-12T12:14:23.106Z,92.16
2024-02-12T12:15:23.121Z,93.03
2024-02-12T12:16:23.095Z,91.94
2024-02-12T12:17:30.646Z,91.71
2024-02-12T12:18:24.158Z,92.07
2024-02-12T12:19:23.122Z,93.30
2024-02-12T12:20:23.108Z,94.18
2024-02-12T12:21:23.030Z,94.38
2024-02-12T12:22:23.028Z,95.21
2024-02-12T12:23:22.985Z,95.42
2024-02-12T12:24:22.946Z,95.52
2024-02-12T12:25:23.053Z,96.45
2024-02-12T12:26:22.958Z,96.70
2024-02-12T12:27:22.893Z,96.97
2024-02-12T12:28:22.870Z,97.17
2024-02-12T12:29:27.897Z,97.17
2024-02-12T12:30:23.990Z,97.38
2024-02-12T12:31:22.884Z,98.00
2024-02-12T12:32:23.009Z,98.00
2024-02-12T12:33:22.886Z,98.27
2024-02-12T12:34:22.913Z,98.47
2024-02-12T12:35:23.034Z,98.27
2024-02-12T12:36:22.818Z,98.22
2024-02-12T12:37:22.771Z,98.01
2024-02-12T12:38:22.831Z,98.22
2024-02-12T12:39:22.816Z,98.22
2024-02-12T12:40:22.850Z,97.91
2024-02-12T12:41:22.925Z,98.22
2024-02-12T12:42:22.736Z,98.28
2024-02-12T12:43:22.836Z,98.79
2024-02-12T12:44:22.780Z,98.44
2024-02-12T12:45:22.953Z,98.54
2024-02-12T12:46:22.810Z,98.54
2024-02-12T12:47:22.698Z,98.75
2024-02-12T12:48:22.843Z,98.23
2024-02-12T12:49:24.258Z,97.92
2024-02-12T12:50:22.726Z,98.33
2024-02-12T12:51:22.634Z,98.23
2024-02-12T12:52:22.583Z,98.23
2024-02-12T12:53:22.710Z,98.65
2024-02-12T12:54:22.639Z,98.38
2024-02-12T12:55:22.606Z,98.75